LGTG

Tanagra Airport

Tanagra, Greece
TAF LGTG 190800Z 1909/1918 35006KT 8000 FEW010 SCT025
Issued Valid From Valid To
Oct-19 @ 08:00 UTC
(an hour ago)
Oct-19 @ 09:00 UTC
(6 minutes ago)
Oct-19 @ 18:00 UTC
(in 9 hours)
Oct-19 @ 09:00 to Oct-19 @ 18:00
TAF LGTG 190800Z 1909/1918 35006KT 8000 FEW010 SCT025
Wind Visibility Clouds
350° at 6 knots 7,998 meters
  • Few at 1,000' AGL
  • Scattered at 2,500' AGL
TAF LGTG 190800Z 1909/1918 35006KT 8000 FEW010 SCT025
Issued Oct-19 @ 08:00 UTC
(an hour ago)
Valid From Oct-19 @ 09:00 UTC
(6 minutes ago)
Valid To Oct-19 @ 18:00 UTC
(in 9 hours)
Oct-19 @ 09:00 - Oct-19 @ 18:00
Wind Visibility
350° at 6 knots 7,998 meters
Clouds
  • Few at 1,000' AGL
  • Scattered at 2,500' AGL